Time;durP1;ratioP1;P1;durP2;ratioP2;P2;SDS_P1;SDS_P2;PMS_P1;PMS_P2;Temp;Humidity;BMP_temperature;BMP_pressure;BME280_temperature;BME280_humidity;BME280_pressure;Samples;Min_cycle;Max_cycle;Signal;HPM_P1;HPM_P2
2024/04/25 00:01:40;;;;;;;;;;;;;;;17.98;57.25;100566.82;107151;1263;25408;-58
2024/04/25 00:04:07;;;;;;;;;;;;;;;17.98;57.25;100564.04;107126;1266;25333;-58
2024/04/25 00:06:34;;;;;;;;;;;;;;;17.97;57.46;100562.16;106733;1269;25461;-59
2024/04/25 00:09:01;;;;;;;;;;;;;;;17.97;57.51;100562.67;106907;1264;25233;-57
2024/04/25 00:11:28;;;;;;;;;;;;;;;17.90;57.90;100562.66;107199;1264;25448;-57
2024/04/25 00:13:55;;;;;;;;;;;;;;;17.89;57.96;100562.37;107112;1257;25312;-57
2024/04/25 00:16:22;;;;;;;;;;;;;;;17.88;57.79;100561.72;107146;1267;25350;-57
2024/04/25 00:18:49;;;;;;;;;;;;;;;17.86;57.75;100561.14;106690;1263;594675;-57
2024/04/25 00:21:16;;;;;;;;;;;;;;;17.85;57.66;100558.58;107061;1266;25318;-58
2024/04/25 00:23:43;;;;;;;;;;;;;;;17.84;57.61;100552.66;106802;1260;25392;-57
2024/04/25 00:26:10;;;;;;;;;;;;;;;17.84;57.60;100557.58;107128;1265;25392;-57
2024/04/25 00:28:37;;;;;;;;;;;;;;;17.83;57.52;100562.55;106841;1257;25349;-58
2024/04/25 00:31:04;;;;;;;;;;;;;;;17.81;57.56;100564.02;107100;1264;25316;-57
2024/04/25 00:33:31;;;;;;;;;;;;;;;17.79;57.41;100564.50;106781;1269;25321;-57
2024/04/25 00:35:58;;;;;;;;;;;;;;;17.78;57.38;100571.73;106953;1258;25497;-57
2024/04/25 00:38:25;;;;;;;;;;;;;;;17.81;57.20;100568.80;107063;1257;25334;-57
2024/04/25 00:40:52;;;;;;;;;;;;;;;17.81;56.85;100566.13;107159;1254;25411;-57
2024/04/25 00:43:30;;;;;;;;;;;;;;;17.80;56.81;100564.09;107153;1257;25377;-57
2024/04/25 00:46:00;;;;;;;;;;;;;;;17.78;56.62;100565.98;107118;1257;25386;-57
2024/04/25 00:48:30;;;;;;;;;;;;;;;17.76;56.63;100571.66;107207;1265;25316;-58
2024/04/25 00:50:58;;;;;;;;;;;;;;;17.75;56.69;100572.64;106878;1269;25334;-57
2024/04/25 00:53:27;;;;;;;;;;;;;;;17.74;56.56;100577.08;106807;1261;25392;-57
2024/04/25 00:55:54;;;;;;;;;;;;;;;17.73;56.56;100583.60;107079;1263;25334;-56
2024/04/25 00:58:21;;;;;;;;;;;;;;;17.72;56.51;100581.91;107139;1255;25497;-57
2024/04/25 01:00:49;;;;;;;;;;;;;;;17.70;56.38;100581.67;106992;1267;25334;-58
2024/04/25 01:03:17;;;;;;;;;;;;;;;17.67;56.11;100582.37;107072;1264;22506;-58
2024/04/25 01:05:44;;;;;;;;;;;;;;;17.64;56.03;100580.26;107170;1265;25305;-57
2024/04/25 01:08:12;;;;;;;;;;;;;;;17.61;55.80;100583.35;106854;1270;25340;-58
2024/04/25 01:10:39;;;;;;;;;;;;;;;17.61;55.76;100581.10;107057;1264;25306;-58
2024/04/25 01:13:06;;;;;;;;;;;;;;;17.60;55.75;100581.33;107145;1254;25325;-58
2024/04/25 01:15:33;;;;;;;;;;;;;;;17.58;56.00;100580.02;106851;1266;25283;-57
2024/04/25 01:18:00;;;;;;;;;;;;;;;17.58;56.12;100573.92;107067;1256;25474;-58
2024/04/25 01:20:27;;;;;;;;;;;;;;;17.57;56.17;100578.67;107218;1251;25383;-58
2024/04/25 01:22:54;;;;;;;;;;;;;;;17.57;56.15;100583.09;107153;1263;25397;-57
2024/04/25 01:25:21;;;;;;;;;;;;;;;17.56;56.21;100582.09;107142;1258;25350;-57
2024/04/25 01:27:48;;;;;;;;;;;;;;;17.55;56.34;100584.78;107172;1261;25315;-57
2024/04/25 01:30:15;;;;;;;;;;;;;;;17.55;56.42;100582.33;107231;1254;25395;-57
2024/04/25 01:32:42;;;;;;;;;;;;;;;17.54;56.46;100586.39;106886;1267;25312;-57
2024/04/25 01:35:10;;;;;;;;;;;;;;;17.53;56.24;100583.83;107107;1257;25386;-57
2024/04/25 01:37:37;;;;;;;;;;;;;;;17.51;56.21;100580.42;107213;1267;25353;-58
2024/04/25 01:40:05;;;;;;;;;;;;;;;17.47;56.32;100574.09;106720;1254;1002922;-58
2024/04/25 01:42:32;;;;;;;;;;;;;;;17.45;56.24;100567.91;107199;1251;23879;-58
2024/04/25 01:44:59;;;;;;;;;;;;;;;17.44;56.18;100571.64;107172;1257;25474;-58
2024/04/25 01:47:26;;;;;;;;;;;;;;;17.43;56.16;100573.45;107141;1254;25340;-57
2024/04/25 01:49:53;;;;;;;;;;;;;;;17.37;55.90;100578.52;107166;1263;25333;-57
2024/04/25 01:52:20;;;;;;;;;;;;;;;17.27;56.04;100578.35;106899;1257;24273;-58
2024/04/25 01:54:47;;;;;;;;;;;;;;;17.22;56.18;100579.45;106920;1260;25327;-58
2024/04/25 01:57:14;;;;;;;;;;;;;;;17.21;56.06;100581.96;107192;1266;24909;-57
2024/04/25 01:59:41;;;;;;;;;;;;;;;17.20;56.20;100582.71;107178;1256;25353;-57
2024/04/25 02:02:08;;;;;;;;;;;;;;;17.18;56.34;100584.75;107074;1261;25344;-58
2024/04/25 02:04:35;;;;;;;;;;;;;;;17.18;56.32;100580.19;107169;1254;25452;-58
2024/04/25 02:07:03;;;;;;;;;;;;;;;17.18;56.29;100575.50;107171;1251;25414;-58
2024/04/25 02:09:29;;;;;;;;;;;;;;;17.18;56.29;100573.38;107059;1261;25340;-58
2024/04/25 02:11:57;;;;;;;;;;;;;;;17.19;56.31;100575.45;106916;1261;25334;-55
2024/04/25 02:14:23;;;;;;;;;;;;;;;17.23;56.20;100575.06;107169;1254;25396;-59
2024/04/25 02:16:50;;;;;;;;;;;;;;;17.19;56.19;100577.17;107179;1254;25398;-58
2024/04/25 02:19:17;;;;;;;;;;;;;;;17.18;56.17;100572.86;106869;1258;23256;-59
2024/04/25 02:27:15;;;;;;;;;;;;;;;17.17;55.98;100560.44;107151;1257;25334;-57
2024/04/25 02:29:43;;;;;;;;;;;;;;;17.17;55.82;100558.73;107072;1254;25437;-58
2024/04/25 02:32:09;;;;;;;;;;;;;;;17.16;55.76;100562.27;107160;1257;25353;-58
2024/04/25 02:34:37;;;;;;;;;;;;;;;17.15;55.68;100566.54;107181;1255;25477;-58
2024/04/25 02:37:04;;;;;;;;;;;;;;;17.13;55.90;100570.14;107160;1254;25346;-58
2024/04/25 02:39:32;;;;;;;;;;;;;;;17.12;55.90;100564.06;107043;1251;25475;-59
2024/04/25 02:41:58;;;;;;;;;;;;;;;17.10;55.78;100568.86;107224;1251;22730;-58
2024/04/25 02:44:25;;;;;;;;;;;;;;;17.10;55.83;100569.59;107140;1251;25368;-58
2024/04/25 02:46:52;;;;;;;;;;;;;;;17.11;55.81;100571.12;107143;1260;25392;-56
2024/04/25 02:49:19;;;;;;;;;;;;;;;17.10;55.72;100570.64;107057;1251;25542;-59
2024/04/25 02:51:46;;;;;;;;;;;;;;;17.14;55.59;100570.09;107103;1255;25399;-57
2024/04/25 02:54:13;;;;;;;;;;;;;;;17.10;55.71;100565.52;107094;1264;25346;-58
2024/04/25 02:56:40;;;;;;;;;;;;;;;17.18;55.62;100562.01;106857;1256;25344;-58
2024/04/25 02:59:08;;;;;;;;;;;;;;;17.14;55.70;100566.05;107137;1251;25337;-57
2024/04/25 03:01:35;;;;;;;;;;;;;;;17.23;55.41;100566.43;106902;1270;25318;-57
2024/04/25 03:04:02;;;;;;;;;;;;;;;17.25;55.29;100564.23;107226;1254;25379;-58
2024/04/25 03:06:29;;;;;;;;;;;;;;;17.24;55.24;100568.84;107092;1266;25340;-57
2024/04/25 03:08:56;;;;;;;;;;;;;;;17.12;55.63;100567.05;107102;1254;25331;-57
2024/04/25 03:11:23;;;;;;;;;;;;;;;17.05;55.82;100566.86;107066;1254;25359;-57
2024/04/25 03:13:50;;;;;;;;;;;;;;;17.05;55.83;100566.71;107131;1263;25353;-57
2024/04/25 03:16:17;;;;;;;;;;;;;;;17.01;55.87;100574.95;107055;1251;25465;-57
2024/04/25 03:18:44;;;;;;;;;;;;;;;17.08;55.62;100571.96;107066;1256;25343;-57
2024/04/25 03:21:11;;;;;;;;;;;;;;;17.19;55.06;100573.67;107120;1257;25356;-57
2024/04/25 03:23:40;;;;;;;;;;;;;;;17.21;54.79;100572.19;107116;1254;25365;-57
2024/04/25 03:26:07;;;;;;;;;;;;;;;17.22;54.94;100569.85;106921;1259;25552;-59
2024/04/25 03:28:35;;;;;;;;;;;;;;;17.19;55.11;100571.23;107046;1257;25334;-57
2024/04/25 03:31:02;;;;;;;;;;;;;;;17.04;55.56;100569.34;107168;1250;25402;-58
2024/04/25 03:33:29;;;;;;;;;;;;;;;17.02;55.90;100568.63;107081;1253;25350;-56
2024/04/25 03:35:56;;;;;;;;;;;;;;;17.01;55.97;100572.16;107113;1254;25318;-57
2024/04/25 03:38:23;;;;;;;;;;;;;;;17.02;56.18;100569.66;106882;1260;25315;-57
2024/04/25 03:40:50;;;;;;;;;;;;;;;17.03;56.42;100570.29;106866;1272;25383;-57
2024/04/25 03:43:17;;;;;;;;;;;;;;;17.06;56.48;100569.60;107264;1261;25334;-58
2024/04/25 03:45:44;;;;;;;;;;;;;;;17.09;56.80;100564.58;107210;1267;22508;-57
2024/04/25 03:48:11;;;;;;;;;;;;;;;17.10;56.88;100561.88;107080;1251;25369;-57
2024/04/25 03:50:39;;;;;;;;;;;;;;;17.12;56.83;100560.18;107206;1264;25316;-57
2024/04/25 03:53:06;;;;;;;;;;;;;;;17.15;56.94;100559.50;107183;1250;25491;-57
2024/04/25 03:55:35;;;;;;;;;;;;;;;17.18;56.94;100563.22;107193;1250;25356;-57
2024/04/25 03:58:02;;;;;;;;;;;;;;;17.20;56.92;100564.50;107297;1251;25337;-58
2024/04/25 04:00:30;;;;;;;;;;;;;;;17.23;56.98;100570.47;107168;1255;25349;-58
2024/04/25 04:02:57;;;;;;;;;;;;;;;17.26;57.02;100571.35;107126;1254;25315;-57
2024/04/25 04:05:24;;;;;;;;;;;;;;;17.29;57.17;100570.48;107141;1251;23877;-57
2024/04/25 04:07:52;;;;;;;;;;;;;;;17.33;57.27;100570.29;107083;1254;25334;-57
2024/04/25 04:10:18;;;;;;;;;;;;;;;17.35;57.57;100567.36;107039;1254;25362;-58
2024/04/25 04:12:47;;;;;;;;;;;;;;;17.41;57.66;100569.20;107147;1267;25494;-57
2024/04/25 04:15:14;;;;;;;;;;;;;;;17.46;57.94;100570.34;107172;1251;25474;-57
2024/04/25 04:17:44;;;;;;;;;;;;;;;17.50;58.38;100563.96;107132;1266;25404;-57
2024/04/25 04:20:11;;;;;;;;;;;;;;;17.55;58.67;100559.70;107114;1257;25325;-58
2024/04/25 04:22:38;;;;;;;;;;;;;;;17.60;58.90;100565.92;107181;1254;25510;-57
2024/04/25 04:25:05;;;;;;;;;;;;;;;17.66;59.08;100558.73;106918;1267;25389;-57
2024/04/25 04:27:32;;;;;;;;;;;;;;;17.73;59.22;100561.83;106849;1267;22632;-57
2024/04/25 04:29:59;;;;;;;;;;;;;;;17.80;59.27;100564.09;106904;1260;25385;-58
2024/04/25 04:32:26;;;;;;;;;;;;;;;17.87;59.42;100563.02;107076;1257;25334;-57
2024/04/25 04:34:53;;;;;;;;;;;;;;;17.94;59.55;100564.59;106898;1268;25382;-58
2024/04/25 04:37:22;;;;;;;;;;;;;;;18.01;59.60;100575.61;106836;1258;24232;-58
2024/04/25 04:39:48;;;;;;;;;;;;;;;18.07;59.78;100584.21;107122;1260;25455;-58
2024/04/25 04:42:15;;;;;;;;;;;;;;;18.14;59.83;100584.35;107078;1270;25352;-57
2024/04/25 04:44:42;;;;;;;;;;;;;;;18.22;59.91;100589.88;107045;1263;25353;-58
2024/04/25 04:47:10;;;;;;;;;;;;;;;18.28;59.83;100592.02;107076;1257;25382;-58
2024/04/25 04:49:37;;;;;;;;;;;;;;;18.34;60.04;100592.34;107140;1266;25315;-58
2024/04/25 04:52:04;;;;;;;;;;;;;;;18.41;59.93;100585.45;107113;1270;22511;-58
2024/04/25 04:54:31;;;;;;;;;;;;;;;18.48;59.89;100584.56;106829;1273;25401;-58
2024/04/25 04:56:58;;;;;;;;;;;;;;;18.55;59.76;100597.52;107150;1266;25491;-58
2024/04/25 04:59:25;;;;;;;;;;;;;;;18.61;59.66;100601.01;106851;1270;25345;-58
2024/04/25 05:01:53;;;;;;;;;;;;;;;18.66;59.70;100599.11;106911;1259;25462;-57
2024/04/25 05:04:19;;;;;;;;;;;;;;;18.72;59.65;100597.41;107084;1250;25319;-57
2024/04/25 05:06:46;;;;;;;;;;;;;;;18.74;59.59;100596.39;107148;1266;25394;-58
2024/04/25 05:09:13;;;;;;;;;;;;;;;18.77;59.71;100598.70;107214;1266;22599;-57
2024/04/25 05:11:40;;;;;;;;;;;;;;;18.80;59.67;100601.48;107162;1267;25375;-58
2024/04/25 05:14:10;;;;;;;;;;;;;;;18.84;59.71;100596.83;106855;1273;25785;-57
2024/04/25 05:16:37;;;;;;;;;;;;;;;18.87;59.69;100595.08;107224;1266;25334;-57
2024/04/25 05:19:04;;;;;;;;;;;;;;;18.90;59.70;100594.55;107258;1266;25373;-57
2024/04/25 05:21:32;;;;;;;;;;;;;;;18.96;59.69;100594.22;107147;1266;24249;-57
2024/04/25 05:24:01;;;;;;;;;;;;;;;19.01;59.56;100590.58;107051;1270;25402;-58
2024/04/25 05:26:29;;;;;;;;;;;;;;;19.04;59.56;100588.78;107154;1266;25388;-57
2024/04/25 05:28:56;;;;;;;;;;;;;;;19.08;59.41;100587.12;107127;1266;24210;-57
2024/04/25 05:31:23;;;;;;;;;;;;;;;19.13;59.44;100587.92;107086;1266;25353;-58
2024/04/25 05:33:50;;;;;;;;;;;;;;;19.21;59.55;100593.02;107152;1267;25431;-58
2024/04/25 05:36:17;;;;;;;;;;;;;;;19.41;59.78;100590.60;107101;1266;25343;-57
2024/04/25 05:38:46;;;;;;;;;;;;;;;19.74;59.27;100581.95;107124;1267;25465;-57
2024/04/25 05:41:13;;;;;;;;;;;;;;;20.12;58.56;100582.30;107122;1266;25402;-58
2024/04/25 05:43:39;;;;;;;;;;;;;;;20.58;57.97;100587.61;107128;1266;24249;-57
2024/04/25 05:46:06;;;;;;;;;;;;;;;21.05;56.52;100589.21;107061;1267;25380;-57
2024/04/25 05:48:33;;;;;;;;;;;;;;;21.54;55.43;100597.82;107140;1266;25392;-57
2024/04/25 05:51:01;;;;;;;;;;;;;;;22.03;53.97;100604.58;107097;1266;25343;-57
2024/04/25 05:53:28;;;;;;;;;;;;;;;22.44;52.47;100602.65;107055;1267;25350;-58
2024/04/25 05:55:55;;;;;;;;;;;;;;;22.75;51.52;100598.29;107074;1266;25474;-57
2024/04/25 05:58:22;;;;;;;;;;;;;;;23.02;50.79;100595.65;107173;1267;25383;-58
2024/04/25 06:00:49;;;;;;;;;;;;;;;23.30;49.92;100593.30;107133;1268;25383;-57
2024/04/25 06:03:16;;;;;;;;;;;;;;;23.61;49.17;100587.33;107116;1266;24260;-57
2024/04/25 06:05:43;;;;;;;;;;;;;;;23.94;48.40;100590.88;107127;1251;25399;-57
2024/04/25 06:08:10;;;;;;;;;;;;;;;24.27;47.55;100602.80;107154;1266;25499;-57
2024/04/25 06:10:37;;;;;;;;;;;;;;;24.55;46.58;100604.80;107207;1266;25340;-57
2024/04/25 06:13:05;;;;;;;;;;;;;;;24.79;46.01;100608.27;107143;1266;25353;-58
2024/04/25 06:15:32;;;;;;;;;;;;;;;25.06;45.47;100604.05;107169;1256;25344;-58
2024/04/25 06:18:02;;;;;;;;;;;;;;;25.29;44.55;100604.19;107123;1260;25369;-58
2024/04/25 06:20:29;;;;;;;;;;;;;;;25.44;44.34;100603.39;107166;1266;25325;-57
2024/04/25 06:22:57;;;;;;;;;;;;;;;25.58;43.98;100605.98;107093;1267;25328;-57
2024/04/25 06:25:24;;;;;;;;;;;;;;;25.72;43.30;100597.45;106842;1269;25433;-57
2024/04/25 06:27:51;;;;;;;;;;;;;;;25.83;43.25;100594.16;107108;1266;25371;-57
2024/04/25 06:30:18;;;;;;;;;;;;;;;25.89;43.03;100585.14;107147;1266;25402;-57
2024/04/25 06:32:45;;;;;;;;;;;;;;;25.92;42.88;100590.71;106846;1266;25459;-57
2024/04/25 06:35:13;;;;;;;;;;;;;;;25.93;42.85;100593.27;107099;1266;23181;-58
2024/04/25 06:37:40;;;;;;;;;;;;;;;25.93;42.78;100601.63;107125;1270;25380;-57
2024/04/25 06:40:07;;;;;;;;;;;;;;;25.93;42.65;100602.73;107185;1266;25370;-57
2024/04/25 06:42:34;;;;;;;;;;;;;;;25.89;42.30;100609.81;106940;1269;24265;-57
2024/04/25 06:45:02;;;;;;;;;;;;;;;25.80;42.31;100609.31;107093;1266;25372;-56
2024/04/25 06:47:30;;;;;;;;;;;;;;;25.72;42.60;100608.25;107109;1267;22517;-57
2024/04/25 06:49:58;;;;;;;;;;;;;;;25.69;42.76;100608.21;107157;1266;25353;-57
2024/04/25 06:52:25;;;;;;;;;;;;;;;25.70;42.60;100609.17;107058;1266;25466;-57
2024/04/25 06:54:52;;;;;;;;;;;;;;;25.78;42.71;100611.28;107148;1266;25374;-57
2024/04/25 06:57:19;;;;;;;;;;;;;;;25.88;42.24;100610.81;107192;1267;25353;-57
2024/04/25 06:59:46;;;;;;;;;;;;;;;25.95;42.12;100613.42;107118;1266;25377;-57
2024/04/25 07:02:16;;;;;;;;;;;;;;;25.93;41.89;100613.17;107102;1267;25325;-57
2024/04/25 07:04:44;;;;;;;;;;;;;;;25.88;42.15;100616.46;107144;1266;25402;-57
2024/04/25 07:07:10;;;;;;;;;;;;;;;25.84;42.04;100619.11;107125;1262;25376;-57
2024/04/25 07:09:37;;;;;;;;;;;;;;;25.78;41.92;100621.92;107092;1266;25325;-58
2024/04/25 07:12:05;;;;;;;;;;;;;;;25.79;42.49;100623.66;107180;1266;22510;-57
2024/04/25 07:14:33;;;;;;;;;;;;;;;25.87;42.45;100627.23;107134;1267;25352;-58
2024/04/25 07:17:00;;;;;;;;;;;;;;;25.96;42.22;100628.08;107104;1270;25465;-57
2024/04/25 07:19:27;;;;;;;;;;;;;;;26.02;42.00;100629.52;107116;1267;22535;-58
2024/04/25 07:21:54;;;;;;;;;;;;;;;26.07;42.19;100631.52;107067;1266;25426;-58
2024/04/25 07:24:21;;;;;;;;;;;;;;;26.13;42.02;100629.44;106916;1274;25334;-58
2024/04/25 07:26:48;;;;;;;;;;;;;;;26.14;41.74;100629.64;107120;1266;25499;-57
2024/04/25 07:29:15;;;;;;;;;;;;;;;26.08;41.70;100632.11;107212;1266;25325;-57
2024/04/25 07:31:42;;;;;;;;;;;;;;;25.93;41.74;100640.17;106903;1269;25366;-57
2024/04/25 07:34:09;;;;;;;;;;;;;;;25.77;42.06;100641.59;106886;1269;25495;-57
2024/04/25 07:36:36;;;;;;;;;;;;;;;25.69;42.30;100643.34;107144;1266;25325;-58
2024/04/25 07:39:04;;;;;;;;;;;;;;;25.55;42.37;100650.98;106924;1267;25353;-57
2024/04/25 07:41:32;;;;;;;;;;;;;;;25.38;42.85;100650.48;106887;1269;25387;-58
2024/04/25 07:43:59;;;;;;;;;;;;;;;25.21;42.82;100647.70;107093;1267;25346;-57
2024/04/25 07:46:26;;;;;;;;;;;;;;;25.01;43.00;100649.56;106816;1267;1003085;-58
2024/04/25 07:48:53;;;;;;;;;;;;;;;24.79;43.54;100658.69;106964;1267;22514;-57
2024/04/25 07:51:20;;;;;;;;;;;;;;;24.61;44.19;100662.59;106844;1267;25386;-57
2024/04/25 07:53:47;;;;;;;;;;;;;;;24.49;44.25;100662.74;107098;1266;24265;-57
2024/04/25 07:56:15;;;;;;;;;;;;;;;24.37;44.32;100661.36;107199;1266;25454;-57
2024/04/25 07:58:42;;;;;;;;;;;;;;;24.28;44.32;100665.67;107081;1266;25334;-57
2024/04/25 08:01:08;;;;;;;;;;;;;;;24.16;44.59;100666.62;106992;1251;25420;-57
2024/04/25 08:03:36;;;;;;;;;;;;;;;24.06;44.62;100667.41;106829;1270;25396;-57
2024/04/25 08:06:03;;;;;;;;;;;;;;;23.94;44.74;100668.54;106975;1266;25449;-57
2024/04/25 08:08:31;;;;;;;;;;;;;;;23.81;44.93;100664.44;107012;1266;24249;-57
2024/04/25 08:11:00;;;;;;;;;;;;;;;23.67;45.17;100662.37;106995;1267;25325;-57
2024/04/25 08:13:27;;;;;;;;;;;;;;;23.55;45.98;100657.46;107059;1266;25337;-57
2024/04/25 08:15:54;;;;;;;;;;;;;;;23.48;46.21;100657.45;106766;1267;25541;-57
2024/04/25 08:18:22;;;;;;;;;;;;;;;23.43;46.39;100658.36;106869;1267;25462;-58
2024/04/25 08:20:49;;;;;;;;;;;;;;;23.40;46.53;100651.52;107048;1266;25293;-57
2024/04/25 08:23:16;;;;;;;;;;;;;;;23.39;46.64;100651.24;107076;1267;25315;-57
2024/04/25 08:25:43;;;;;;;;;;;;;;;23.36;46.66;100646.67;107001;1267;26603;-58
2024/04/25 08:28:10;;;;;;;;;;;;;;;23.35;46.60;100642.52;107095;1267;25334;-59
2024/04/25 08:30:37;;;;;;;;;;;;;;;23.30;46.50;100638.10;107204;1266;22563;-56
2024/04/25 08:33:04;;;;;;;;;;;;;;;23.23;46.69;100642.19;107232;1270;27243;-57
2024/04/25 08:35:31;;;;;;;;;;;;;;;23.15;47.05;100642.23;107276;1266;22501;-56
2024/04/25 08:37:59;;;;;;;;;;;;;;;23.08;47.38;100638.41;107047;1266;25353;-57
2024/04/25 08:40:26;;;;;;;;;;;;;;;23.13;47.14;100638.33;107006;1269;25477;-57
2024/04/25 08:42:53;;;;;;;;;;;;;;;23.11;47.29;100634.80;107334;1266;23241;-58
2024/04/25 08:45:23;;;;;;;;;;;;;;;23.08;47.57;100640.65;107110;1267;25541;-57
2024/04/25 08:47:51;;;;;;;;;;;;;;;23.05;47.44;100643.02;107233;1269;24271;-57
2024/04/25 08:50:18;;;;;;;;;;;;;;;23.00;47.43;100644.50;107084;1267;25315;-57
2024/04/25 08:52:46;;;;;;;;;;;;;;;22.81;47.96;100647.88;106950;1267;25465;-57
2024/04/25 08:55:15;;;;;;;;;;;;;;;22.73;48.28;100647.58;107239;1267;25325;-57
2024/04/25 08:57:43;;;;;;;;;;;;;;;22.68;48.66;100642.31;106776;1274;22531;-57
2024/04/25 09:00:10;;;;;;;;;;;;;;;22.69;49.09;100647.89;107052;1267;22568;-56
2024/04/25 09:02:38;;;;;;;;;;;;;;;22.70;48.72;100648.15;107063;1267;25318;-57
2024/04/25 09:05:11;;;;;;;;;;;;;;;22.70;48.67;100642.12;107293;1255;25502;-57
2024/04/25 09:07:45;;;;;;;;;;;;;;;22.68;48.43;100632.58;107594;1266;25411;-57
2024/04/25 09:10:12;;;;;;;;;;;;;;;22.68;48.95;100635.58;107310;1267;23305;-58
2024/04/25 09:12:39;;;;;;;;;;;;;;;22.75;48.90;100633.84;107081;1251;22502;-57
2024/04/25 09:15:06;;;;;;;;;;;;;;;22.70;48.73;100633.67;107050;1271;25401;-58
2024/04/25 09:17:34;;;;;;;;;;;;;;;22.71;48.88;100626.54;107071;1267;25519;-57
2024/04/25 09:20:07;;;;;;;;;;;;;;;22.73;48.74;100630.43;106918;1270;25344;-57
2024/04/25 09:22:37;;;;;;;;;;;;;;;22.76;48.55;100635.34;107120;1267;24231;-58
2024/04/25 09:25:04;;;;;;;;;;;;;;;22.77;48.45;100633.47;107102;1270;23869;-58
2024/04/25 09:27:31;;;;;;;;;;;;;;;22.76;48.18;100631.98;106598;1251;1003055;-57
2024/04/25 09:29:57;;;;;;;;;;;;;;;22.73;48.41;100629.94;106970;1267;24213;-56
2024/04/25 09:32:24;;;;;;;;;;;;;;;22.69;48.71;100629.29;107367;1267;25353;-56
2024/04/25 09:34:52;;;;;;;;;;;;;;;22.70;48.94;100625.86;107163;1270;22505;-57
2024/04/25 09:37:20;;;;;;;;;;;;;;;22.75;48.85;100626.94;106788;1275;25343;-57
2024/04/25 09:39:47;;;;;;;;;;;;;;;22.80;48.92;100622.66;106753;1273;25522;-57
2024/04/25 09:42:24;;;;;;;;;;;;;;;22.84;48.66;100618.98;107258;1267;25337;-56
2024/04/25 09:44:51;;;;;;;;;;;;;;;22.86;48.75;100617.79;107267;1266;25356;-56
2024/04/25 09:47:20;;;;;;;;;;;;;;;22.86;48.33;100613.18;107284;1255;24181;-56
2024/04/25 09:49:51;;;;;;;;;;;;;;;22.90;48.46;100614.80;107241;1266;24410;-57
2024/04/25 09:52:20;;;;;;;;;;;;;;;22.85;48.89;100611.66;107230;1266;25532;-56
2024/04/25 09:54:47;;;;;;;;;;;;;;;22.82;49.17;100611.73;107135;1270;25305;-56
2024/04/25 09:57:15;;;;;;;;;;;;;;;22.80;49.33;100609.41;107157;1266;25502;-56
2024/04/25 09:59:42;;;;;;;;;;;;;;;22.82;49.31;100611.70;106863;1267;22739;-56
2024/04/25 10:02:11;;;;;;;;;;;;;;;22.85;49.52;100608.48;107144;1267;22602;-57
2024/04/25 10:04:38;;;;;;;;;;;;;;;22.86;49.37;100605.88;107265;1266;25296;-56
2024/04/25 10:07:05;;;;;;;;;;;;;;;22.84;48.92;100599.52;107106;1267;23307;-57
2024/04/25 10:09:32;;;;;;;;;;;;;;;22.81;48.79;100603.09;107064;1270;25503;-58
2024/04/25 10:11:59;;;;;;;;;;;;;;;22.78;48.60;100600.88;107129;1266;22506;-57
2024/04/25 10:14:29;;;;;;;;;;;;;;;22.76;49.13;100603.13;106785;1269;25353;-57
2024/04/25 10:16:57;;;;;;;;;;;;;;;22.76;49.34;100600.65;107148;1254;25380;-57
2024/04/25 10:19:36;;;;;;;;;;;;;;;22.84;48.91;100604.65;107182;1267;25315;-57
2024/04/25 10:22:03;;;;;;;;;;;;;;;22.87;48.82;100603.23;106951;1267;25353;-56
2024/04/25 10:24:30;;;;;;;;;;;;;;;22.88;49.28;100602.77;106992;1266;25325;-56
2024/04/25 10:27:07;;;;;;;;;;;;;;;22.92;48.87;100601.39;107011;1269;22515;-56
2024/04/25 10:29:34;;;;;;;;;;;;;;;22.92;48.87;100602.60;107219;1266;23862;-56
2024/04/25 10:32:01;;;;;;;;;;;;;;;22.96;48.86;100604.08;107086;1266;22729;-56
2024/04/25 10:34:28;;;;;;;;;;;;;;;22.98;48.75;100607.84;107196;1266;24196;-57
2024/04/25 10:36:55;;;;;;;;;;;;;;;23.00;48.84;100603.22;107267;1266;25328;-56
2024/04/25 10:39:22;;;;;;;;;;;;;;;23.00;48.96;100603.05;107173;1267;25229;-56
2024/04/25 10:41:49;;;;;;;;;;;;;;;22.98;48.81;100598.95;107200;1266;25386;-56
2024/04/25 10:44:17;;;;;;;;;;;;;;;22.95;48.65;100596.35;106869;1273;23711;-57
2024/04/25 10:46:44;;;;;;;;;;;;;;;22.95;48.70;100592.27;107025;1267;25338;-58
2024/04/25 10:49:11;;;;;;;;;;;;;;;22.99;48.88;100590.61;107142;1267;25325;-55
2024/04/25 10:51:39;;;;;;;;;;;;;;;23.02;48.85;100585.93;107370;1269;25465;-57
2024/04/25 10:54:06;;;;;;;;;;;;;;;23.04;48.52;100588.59;107237;1267;25356;-56
2024/04/25 10:56:34;;;;;;;;;;;;;;;23.03;48.38;100589.73;107079;1273;22639;-56
2024/04/25 10:59:01;;;;;;;;;;;;;;;22.99;48.53;100585.46;107274;1266;25385;-56
2024/04/25 11:01:28;;;;;;;;;;;;;;;22.94;48.19;100588.53;107219;1267;22532;-57
2024/04/25 11:03:59;;;;;;;;;;;;;;;22.86;48.22;100581.53;107307;1266;25325;-56
2024/04/25 11:06:27;;;;;;;;;;;;;;;22.94;48.07;100579.34;106999;1267;22502;-56
2024/04/25 11:08:54;;;;;;;;;;;;;;;22.94;48.00;100584.61;107316;1268;25388;-56
2024/04/25 11:11:22;;;;;;;;;;;;;;;22.89;48.10;100588.55;107003;1274;25388;-56
2024/04/25 11:13:49;;;;;;;;;;;;;;;22.82;48.18;100594.03;107292;1266;25482;-57
2024/04/25 11:16:16;;;;;;;;;;;;;;;22.65;48.85;100594.19;107146;1267;25494;-56
2024/04/25 11:18:43;;;;;;;;;;;;;;;22.58;49.07;100590.64;106955;1273;25343;-57
2024/04/25 11:21:14;;;;;;;;;;;;;;;22.54;48.86;100595.88;107104;1266;25220;-56
2024/04/25 11:23:42;;;;;;;;;;;;;;;22.51;48.98;100601.02;107093;1267;25476;-57
2024/04/25 11:26:09;;;;;;;;;;;;;;;22.48;48.97;100600.90;106892;1267;22618;-57
2024/04/25 11:28:37;;;;;;;;;;;;;;;22.46;48.93;100598.91;107044;1266;24178;-57
2024/04/25 11:31:05;;;;;;;;;;;;;;;22.46;49.03;100600.70;107054;1267;25399;-55
2024/04/25 11:33:32;;;;;;;;;;;;;;;22.47;49.33;100598.17;107086;1274;22631;-56
2024/04/25 11:36:00;;;;;;;;;;;;;;;22.46;49.14;100604.80;107039;1274;25309;-56
2024/04/25 11:38:29;;;;;;;;;;;;;;;22.46;48.88;100603.55;107262;1267;25325;-57
2024/04/25 11:40:56;;;;;;;;;;;;;;;22.44;48.97;100601.35;106920;1266;25338;-56
2024/04/25 11:43:24;;;;;;;;;;;;;;;22.44;49.23;100604.73;107091;1274;25334;-56
2024/04/25 11:45:51;;;;;;;;;;;;;;;22.46;49.51;100602.35;107156;1269;25363;-57
2024/04/25 11:48:21;;;;;;;;;;;;;;;22.47;49.50;100599.35;106788;1272;25478;-56
2024/04/25 11:50:48;;;;;;;;;;;;;;;22.54;49.39;100595.71;106942;1272;24342;-56
2024/04/25 11:53:15;;;;;;;;;;;;;;;22.56;49.40;100590.64;106275;1269;1002506;-57
2024/04/25 11:55:42;;;;;;;;;;;;;;;22.51;49.31;100592.54;107108;1256;25362;-56
2024/04/25 11:58:10;;;;;;;;;;;;;;;22.48;49.18;100597.90;106994;1266;25474;-57
2024/04/25 12:00:37;;;;;;;;;;;;;;;22.47;49.33;100595.87;107113;1271;25434;-57
2024/04/25 12:03:04;;;;;;;;;;;;;;;22.45;49.24;100599.67;106980;1269;25325;-57
2024/04/25 12:05:32;;;;;;;;;;;;;;;22.45;49.46;100596.21;106817;1273;25372;-57
2024/04/25 12:08:03;;;;;;;;;;;;;;;22.45;49.72;100588.23;106953;1272;22527;-56
2024/04/25 12:10:30;;;;;;;;;;;;;;;22.45;49.37;100589.27;107117;1266;25492;-58
2024/04/25 12:12:58;;;;;;;;;;;;;;;22.42;49.22;100590.89;107093;1267;25346;-57
2024/04/25 12:15:25;;;;;;;;;;;;;;;22.34;49.07;100589.26;107203;1267;24238;-57
2024/04/25 12:17:52;;;;;;;;;;;;;;;22.22;49.20;100588.34;107316;1267;23881;-56
2024/04/25 12:20:19;;;;;;;;;;;;;;;22.11;49.49;100587.04;107104;1266;291136;-56
2024/04/25 12:22:46;;;;;;;;;;;;;;;22.03;49.58;100578.60;106981;1267;25382;-57
2024/04/25 12:25:14;;;;;;;;;;;;;;;21.94;50.01;100572.20;107086;1266;25509;-56
2024/04/25 12:27:41;;;;;;;;;;;;;;;21.90;50.32;100570.38;107517;1267;24387;-56
2024/04/25 12:30:08;;;;;;;;;;;;;;;21.88;50.24;100576.18;107095;1267;25512;-56
2024/04/25 12:32:36;;;;;;;;;;;;;;;21.83;50.18;100576.33;107050;1267;25211;-57